CPX11 Details

Departure: Chek Lap Kok International (VHHH)
Arrival: Ted Stevens Anchorage International Airport (PANC)
Route: OCEAN V3 ENVAR M750 MEXIR M750 BUNGU Y81 SYOYU Y809 SPEAR Y808 PEXEL A590 POWAL A590 PINSO A590 HAMND NEELL6


Current Weather Information
VHHH 250300Z 09011KT 9999 FEW012 SCT026 30/24 Q1009 NOSIG
PANC 250253Z 33005KT 10SM FEW050 SCT060 SCT120 16/05 A3018 RMK AO2 SLP222 T01610050 58013